sensor_id;sensor_type;location;lat;lon;timestamp;temperature;humidity
25504;DHT22;13410;52.114;5.718;2023-03-25T00:02:24;13.60;99.90
25504;DHT22;13410;52.114;5.718;2023-03-25T00:04:52;13.60;99.90
25504;DHT22;13410;52.114;5.718;2023-03-25T00:07:19;13.60;99.90
25504;DHT22;13410;52.114;5.718;2023-03-25T00:09:46;13.60;99.90
25504;DHT22;13410;52.114;5.718;2023-03-25T00:12:13;13.60;99.90
25504;DHT22;13410;52.114;5.718;2023-03-25T00:14:38;13.80;99.90
25504;DHT22;13410;52.114;5.718;2023-03-25T00:17:04;13.60;99.90
25504;DHT22;13410;52.114;5.718;2023-03-25T00:19:31;13.80;99.90
25504;DHT22;13410;52.114;5.718;2023-03-25T00:21:58;13.80;99.90
25504;DHT22;13410;52.114;5.718;2023-03-25T00:24:23;13.80;99.90
25504;DHT22;13410;52.114;5.718;2023-03-25T00:26:49;13.80;99.90
25504;DHT22;13410;52.114;5.718;2023-03-25T00:29:15;13.70;99.90
25504;DHT22;13410;52.114;5.718;2023-03-25T00:31:41;13.70;99.90
25504;DHT22;13410;52.114;5.718;2023-03-25T00:34:07;13.70;99.90
25504;DHT22;13410;52.114;5.718;2023-03-25T00:36:33;13.50;99.90
25504;DHT22;13410;52.114;5.718;2023-03-25T00:39:03;13.50;99.90
25504;DHT22;13410;52.114;5.718;2023-03-25T00:41:29;13.50;99.90
25504;DHT22;13410;52.114;5.718;2023-03-25T00:43:56;13.40;99.90
25504;DHT22;13410;52.114;5.718;2023-03-25T00:46:23;13.30;99.90
25504;DHT22;13410;52.114;5.718;2023-03-25T00:48:51;13.40;99.90
25504;DHT22;13410;52.114;5.718;2023-03-25T00:51:17;13.40;99.90
25504;DHT22;13410;52.114;5.718;2023-03-25T00:53:48;13.30;99.90
25504;DHT22;13410;52.114;5.718;2023-03-25T00:56:16;13.30;99.90
25504;DHT22;13410;52.114;5.718;2023-03-25T00:58:42;13.40;99.90
25504;DHT22;13410;52.114;5.718;2023-03-25T01:01:12;13.30;99.90
25504;DHT22;13410;52.114;5.718;2023-03-25T01:03:40;13.40;99.90
25504;DHT22;13410;52.114;5.718;2023-03-25T01:06:13;13.50;99.90
25504;DHT22;13410;52.114;5.718;2023-03-25T01:08:40;13.50;99.90
25504;DHT22;13410;52.114;5.718;2023-03-25T01:11:16;13.30;99.90
25504;DHT22;13410;52.114;5.718;2023-03-25T01:13:42;13.20;99.90
25504;DHT22;13410;52.114;5.718;2023-03-25T01:16:08;13.30;99.90
25504;DHT22;13410;52.114;5.718;2023-03-25T01:18:34;13.30;99.90
25504;DHT22;13410;52.114;5.718;2023-03-25T01:21:05;13.40;99.90
25504;DHT22;13410;52.114;5.718;2023-03-25T01:23:32;13.40;99.90
25504;DHT22;13410;52.114;5.718;2023-03-25T01:25:58;13.50;99.90
25504;DHT22;13410;52.114;5.718;2023-03-25T01:28:24;13.50;99.90
25504;DHT22;13410;52.114;5.718;2023-03-25T01:30:50;13.50;99.90
25504;DHT22;13410;52.114;5.718;2023-03-25T01:33:15;13.50;99.90
25504;DHT22;13410;52.114;5.718;2023-03-25T01:35:41;13.50;99.90
25504;DHT22;13410;52.114;5.718;2023-03-25T01:38:07;13.60;99.90
25504;DHT22;13410;52.114;5.718;2023-03-25T01:40:32;13.60;99.90
25504;DHT22;13410;52.114;5.718;2023-03-25T01:42:58;13.50;99.90
25504;DHT22;13410;52.114;5.718;2023-03-25T01:45:30;13.30;99.90
25504;DHT22;13410;52.114;5.718;2023-03-25T01:48:09;13.40;99.90
25504;DHT22;13410;52.114;5.718;2023-03-25T01:50:42;13.40;99.90
25504;DHT22;13410;52.114;5.718;2023-03-25T01:53:09;13.20;99.90
25504;DHT22;13410;52.114;5.718;2023-03-25T01:55:37;13.30;99.90
25504;DHT22;13410;52.114;5.718;2023-03-25T01:58:07;13.40;99.90
25504;DHT22;13410;52.114;5.718;2023-03-25T02:00:37;13.60;99.90
25504;DHT22;13410;52.114;5.718;2023-03-25T02:03:03;13.50;99.90
25504;DHT22;13410;52.114;5.718;2023-03-25T02:05:33;13.40;99.90
25504;DHT22;13410;52.114;5.718;2023-03-25T02:08:03;13.40;99.90
25504;DHT22;13410;52.114;5.718;2023-03-25T02:10:30;13.30;99.90
25504;DHT22;13410;52.114;5.718;2023-03-25T02:12:56;13.40;99.90
25504;DHT22;13410;52.114;5.718;2023-03-25T02:15:23;13.20;99.90
25504;DHT22;13410;52.114;5.718;2023-03-25T02:18:00;13.20;99.90
25504;DHT22;13410;52.114;5.718;2023-03-25T02:20:47;13.10;99.90
25504;DHT22;13410;52.114;5.718;2023-03-25T02:32:01;13.00;99.90
25504;DHT22;13410;52.114;5.718;2023-03-25T02:40:39;13.00;99.90
25504;DHT22;13410;52.114;5.718;2023-03-25T02:43:32;12.90;99.90
25504;DHT22;13410;52.114;5.718;2023-03-25T02:46:04;13.00;99.90
25504;DHT22;13410;52.114;5.718;2023-03-25T02:48:53;13.10;99.90
25504;DHT22;13410;52.114;5.718;2023-03-25T02:51:41;13.10;99.90
25504;DHT22;13410;52.114;5.718;2023-03-25T02:54:10;13.10;99.90
25504;DHT22;13410;52.114;5.718;2023-03-25T02:56:38;13.00;99.90
25504;DHT22;13410;52.114;5.718;2023-03-25T02:59:05;12.90;99.90
25504;DHT22;13410;52.114;5.718;2023-03-25T03:01:32;13.00;99.90
25504;DHT22;13410;52.114;5.718;2023-03-25T03:03:59;13.10;99.90
25504;DHT22;13410;52.114;5.718;2023-03-25T03:06:25;13.10;99.90
25504;DHT22;13410;52.114;5.718;2023-03-25T03:09:27;13.10;99.90
25504;DHT22;13410;52.114;5.718;2023-03-25T03:14:55;12.90;99.90
25504;DHT22;13410;52.114;5.718;2023-03-25T03:27:56;12.80;99.90
25504;DHT22;13410;52.114;5.718;2023-03-25T03:30:45;12.70;99.90
25504;DHT22;13410;52.114;5.718;2023-03-25T03:36:07;12.60;99.90
25504;DHT22;13410;52.114;5.718;2023-03-25T03:38:37;12.70;99.90
25504;DHT22;13410;52.114;5.718;2023-03-25T03:41:08;12.70;99.90
25504;DHT22;13410;52.114;5.718;2023-03-25T03:46:15;12.70;99.90
25504;DHT22;13410;52.114;5.718;2023-03-25T03:48:50;12.70;99.90
25504;DHT22;13410;52.114;5.718;2023-03-25T03:51:33;12.60;99.90
25504;DHT22;13410;52.114;5.718;2023-03-25T03:54:17;12.60;99.90
25504;DHT22;13410;52.114;5.718;2023-03-25T03:56:58;12.70;99.90
25504;DHT22;13410;52.114;5.718;2023-03-25T03:59:44;12.70;99.90
25504;DHT22;13410;52.114;5.718;2023-03-25T04:02:26;12.80;99.90
25504;DHT22;13410;52.114;5.718;2023-03-25T04:04:53;12.70;99.90
25504;DHT22;13410;52.114;5.718;2023-03-25T04:07:25;12.70;99.90
25504;DHT22;13410;52.114;5.718;2023-03-25T04:10:20;12.90;99.90
25504;DHT22;13410;52.114;5.718;2023-03-25T04:12:50;12.90;99.90
25504;DHT22;13410;52.114;5.718;2023-03-25T04:15:17;12.90;99.90
25504;DHT22;13410;52.114;5.718;2023-03-25T04:17:43;12.90;99.90
25504;DHT22;13410;52.114;5.718;2023-03-25T04:20:14;12.90;99.90
25504;DHT22;13410;52.114;5.718;2023-03-25T04:22:40;13.00;99.90
25504;DHT22;13410;52.114;5.718;2023-03-25T04:25:11;13.10;99.90
25504;DHT22;13410;52.114;5.718;2023-03-25T04:27:38;13.20;99.90
25504;DHT22;13410;52.114;5.718;2023-03-25T04:30:05;13.10;99.90
25504;DHT22;13410;52.114;5.718;2023-03-25T04:32:32;13.10;99.90
25504;DHT22;13410;52.114;5.718;2023-03-25T04:34:57;13.10;99.90
25504;DHT22;13410;52.114;5.718;2023-03-25T04:37:24;13.10;99.90
25504;DHT22;13410;52.114;5.718;2023-03-25T04:39:51;13.20;99.90
25504;DHT22;13410;52.114;5.718;2023-03-25T04:42:18;13.10;99.90
25504;DHT22;13410;52.114;5.718;2023-03-25T04:44:44;13.00;99.90
25504;DHT22;13410;52.114;5.718;2023-03-25T04:47:12;12.80;99.90
25504;DHT22;13410;52.114;5.718;2023-03-25T04:49:39;12.90;99.90
25504;DHT22;13410;52.114;5.718;2023-03-25T04:52:09;13.00;99.90
25504;DHT22;13410;52.114;5.718;2023-03-25T04:54:35;13.00;99.90
25504;DHT22;13410;52.114;5.718;2023-03-25T04:57:02;13.00;99.90
25504;DHT22;13410;52.114;5.718;2023-03-25T04:59:28;13.00;99.90
25504;DHT22;13410;52.114;5.718;2023-03-25T05:01:53;12.90;99.90
25504;DHT22;13410;52.114;5.718;2023-03-25T05:04:19;12.60;99.90
25504;DHT22;13410;52.114;5.718;2023-03-25T05:06:47;12.70;99.90
25504;DHT22;13410;52.114;5.718;2023-03-25T05:09:19;12.80;99.90
25504;DHT22;13410;52.114;5.718;2023-03-25T05:11:46;12.70;99.90
25504;DHT22;13410;52.114;5.718;2023-03-25T05:14:14;12.80;99.90
25504;DHT22;13410;52.114;5.718;2023-03-25T05:16:40;12.70;99.90
25504;DHT22;13410;52.114;5.718;2023-03-25T05:19:07;12.70;99.90
25504;DHT22;13410;52.114;5.718;2023-03-25T05:21:33;12.70;99.90
25504;DHT22;13410;52.114;5.718;2023-03-25T05:24:00;12.70;99.90
25504;DHT22;13410;52.114;5.718;2023-03-25T05:26:26;12.60;99.90
25504;DHT22;13410;52.114;5.718;2023-03-25T05:29:05;12.60;99.90
25504;DHT22;13410;52.114;5.718;2023-03-25T05:31:31;12.70;99.90
25504;DHT22;13410;52.114;5.718;2023-03-25T05:33:57;12.60;99.90
25504;DHT22;13410;52.114;5.718;2023-03-25T05:36:22;12.50;99.90
25504;DHT22;13410;52.114;5.718;2023-03-25T05:38:52;12.50;99.90
25504;DHT22;13410;52.114;5.718;2023-03-25T05:41:21;12.50;99.90
25504;DHT22;13410;52.114;5.718;2023-03-25T05:43:57;12.40;99.90
25504;DHT22;13410;52.114;5.718;2023-03-25T05:46:23;12.30;99.90
25504;DHT22;13410;52.114;5.718;2023-03-25T05:48:48;12.30;99.90
25504;DHT22;13410;52.114;5.718;2023-03-25T05:51:16;12.20;99.90
25504;DHT22;13410;52.114;5.718;2023-03-25T05:53:43;12.30;99.90
25504;DHT22;13410;52.114;5.718;2023-03-25T05:56:12;12.40;99.90
25504;DHT22;13410;52.114;5.718;2023-03-25T05:58:38;12.40;99.90
25504;DHT22;13410;52.114;5.718;2023-03-25T06:01:04;12.40;99.90
25504;DHT22;13410;52.114;5.718;2023-03-25T06:03:30;12.40;99.90
25504;DHT22;13410;52.114;5.718;2023-03-25T06:05:59;12.30;99.90
25504;DHT22;13410;52.114;5.718;2023-03-25T06:08:25;12.20;99.90
25504;DHT22;13410;52.114;5.718;2023-03-25T06:10:53;12.20;99.90
25504;DHT22;13410;52.114;5.718;2023-03-25T06:13:23;12.20;99.90
25504;DHT22;13410;52.114;5.718;2023-03-25T06:15:48;12.20;99.90
25504;DHT22;13410;52.114;5.718;2023-03-25T06:18:23;12.20;99.90
25504;DHT22;13410;52.114;5.718;2023-03-25T06:20:52;12.40;99.90
25504;DHT22;13410;52.114;5.718;2023-03-25T06:23:22;12.60;99.90
25504;DHT22;13410;52.114;5.718;2023-03-25T06:25:49;12.70;99.90
25504;DHT22;13410;52.114;5.718;2023-03-25T06:28:15;12.90;99.90
25504;DHT22;13410;52.114;5.718;2023-03-25T06:30:43;12.90;99.90
25504;DHT22;13410;52.114;5.718;2023-03-25T06:33:09;12.90;99.90
25504;DHT22;13410;52.114;5.718;2023-03-25T06:35:35;13.00;99.90
25504;DHT22;13410;52.114;5.718;2023-03-25T06:38:00;12.90;99.90
25504;DHT22;13410;52.114;5.718;2023-03-25T06:40:26;13.10;99.90
25504;DHT22;13410;52.114;5.718;2023-03-25T06:42:52;12.90;99.90
25504;DHT22;13410;52.114;5.718;2023-03-25T06:45:17;12.90;99.90
25504;DHT22;13410;52.114;5.718;2023-03-25T06:47:43;13.00;99.90
25504;DHT22;13410;52.114;5.718;2023-03-25T06:50:09;12.80;99.90
25504;DHT22;13410;52.114;5.718;2023-03-25T06:52:35;12.80;99.90
25504;DHT22;13410;52.114;5.718;2023-03-25T06:55:00;12.90;99.90
25504;DHT22;13410;52.114;5.718;2023-03-25T06:57:26;13.00;99.90
25504;DHT22;13410;52.114;5.718;2023-03-25T06:59:51;13.20;99.90
25504;DHT22;13410;52.114;5.718;2023-03-25T07:02:17;13.30;99.90
25504;DHT22;13410;52.114;5.718;2023-03-25T07:04:42;13.20;99.90
25504;DHT22;13410;52.114;5.718;2023-03-25T07:07:08;13.10;99.90
25504;DHT22;13410;52.114;5.718;2023-03-25T07:09:34;12.90;99.90
25504;DHT22;13410;52.114;5.718;2023-03-25T07:12:00;13.00;99.90
25504;DHT22;13410;52.114;5.718;2023-03-25T07:14:25;12.80;99.90
25504;DHT22;13410;52.114;5.718;2023-03-25T07:16:51;12.80;99.90
25504;DHT22;13410;52.114;5.718;2023-03-25T07:19:16;12.80;99.90
25504;DHT22;13410;52.114;5.718;2023-03-25T07:21:42;12.50;99.90
25504;DHT22;13410;52.114;5.718;2023-03-25T07:24:07;12.50;99.90
25504;DHT22;13410;52.114;5.718;2023-03-25T07:26:33;12.60;99.90
25504;DHT22;13410;52.114;5.718;2023-03-25T07:28:59;12.70;99.90
25504;DHT22;13410;52.114;5.718;2023-03-25T07:31:24;12.60;99.90
25504;DHT22;13410;52.114;5.718;2023-03-25T07:33:50;12.60;99.90
25504;DHT22;13410;52.114;5.718;2023-03-25T07:36:16;12.70;99.90
25504;DHT22;13410;52.114;5.718;2023-03-25T07:38:42;12.70;99.90
25504;DHT22;13410;52.114;5.718;2023-03-25T07:41:09;12.70;99.90
25504;DHT22;13410;52.114;5.718;2023-03-25T07:43:36;12.70;99.90
25504;DHT22;13410;52.114;5.718;2023-03-25T07:46:01;12.60;99.90
25504;DHT22;13410;52.114;5.718;2023-03-25T07:48:27;12.70;99.90
25504;DHT22;13410;52.114;5.718;2023-03-25T07:50:53;12.70;99.90
25504;DHT22;13410;52.114;5.718;2023-03-25T07:53:19;12.90;99.90
25504;DHT22;13410;52.114;5.718;2023-03-25T07:55:45;13.00;99.90
25504;DHT22;13410;52.114;5.718;2023-03-25T07:58:11;13.10;99.90
25504;DHT22;13410;52.114;5.718;2023-03-25T08:00:36;13.10;99.90
25504;DHT22;13410;52.114;5.718;2023-03-25T08:03:02;13.00;99.90
25504;DHT22;13410;52.114;5.718;2023-03-25T08:05:29;13.10;99.90
25504;DHT22;13410;52.114;5.718;2023-03-25T08:07:55;13.00;99.90
25504;DHT22;13410;52.114;5.718;2023-03-25T08:10:25;13.20;99.90
25504;DHT22;13410;52.114;5.718;2023-03-25T08:12:52;13.20;99.90
25504;DHT22;13410;52.114;5.718;2023-03-25T08:15:18;13.30;99.90
25504;DHT22;13410;52.114;5.718;2023-03-25T08:17:45;13.60;99.90
25504;DHT22;13410;52.114;5.718;2023-03-25T08:20:10;13.60;99.90
25504;DHT22;13410;52.114;5.718;2023-03-25T08:22:36;13.50;99.90
25504;DHT22;13410;52.114;5.718;2023-03-25T08:25:02;13.40;99.90
25504;DHT22;13410;52.114;5.718;2023-03-25T08:27:27;13.40;99.90
25504;DHT22;13410;52.114;5.718;2023-03-25T08:29:53;13.40;99.90
25504;DHT22;13410;52.114;5.718;2023-03-25T08:32:23;13.40;99.90
25504;DHT22;13410;52.114;5.718;2023-03-25T08:34:49;13.40;99.90
25504;DHT22;13410;52.114;5.718;2023-03-25T08:37:14;13.50;99.90
25504;DHT22;13410;52.114;5.718;2023-03-25T08:39:43;13.50;99.90
25504;DHT22;13410;52.114;5.718;2023-03-25T08:42:11;13.40;99.90
25504;DHT22;13410;52.114;5.718;2023-03-25T08:44:37;13.40;99.90
25504;DHT22;13410;52.114;5.718;2023-03-25T08:47:03;13.50;99.90
25504;DHT22;13410;52.114;5.718;2023-03-25T08:49:29;13.70;99.90
25504;DHT22;13410;52.114;5.718;2023-03-25T08:51:56;13.90;99.90
25504;DHT22;13410;52.114;5.718;2023-03-25T08:54:23;14.00;99.90
25504;DHT22;13410;52.114;5.718;2023-03-25T08:56:50;14.10;99.90
25504;DHT22;13410;52.114;5.718;2023-03-25T08:59:16;14.10;99.90
25504;DHT22;13410;52.114;5.718;2023-03-25T09:01:42;14.00;99.90
25504;DHT22;13410;52.114;5.718;2023-03-25T09:04:09;13.90;99.90
25504;DHT22;13410;52.114;5.718;2023-03-25T09:06:34;13.90;99.90
25504;DHT22;13410;52.114;5.718;2023-03-25T09:09:00;14.00;99.90
25504;DHT22;13410;52.114;5.718;2023-03-25T09:11:26;14.20;99.90
25504;DHT22;13410;52.114;5.718;2023-03-25T09:13:52;14.40;99.90
25504;DHT22;13410;52.114;5.718;2023-03-25T09:16:17;14.40;99.90
25504;DHT22;13410;52.114;5.718;2023-03-25T09:18:43;14.40;99.90
25504;DHT22;13410;52.114;5.718;2023-03-25T09:21:08;14.30;99.90
25504;DHT22;13410;52.114;5.718;2023-03-25T09:23:34;14.40;99.90
25504;DHT22;13410;52.114;5.718;2023-03-25T09:26:01;14.60;99.90
25504;DHT22;13410;52.114;5.718;2023-03-25T09:28:32;14.60;99.90
25504;DHT22;13410;52.114;5.718;2023-03-25T09:31:17;14.90;99.90
25504;DHT22;13410;52.114;5.718;2023-03-25T09:33:43;14.80;99.90
25504;DHT22;13410;52.114;5.718;2023-03-25T09:36:08;14.80;99.90
25504;DHT22;13410;52.114;5.718;2023-03-25T09:38:34;14.90;99.90
25504;DHT22;13410;52.114;5.718;2023-03-25T09:41:11;14.90;99.90
25504;DHT22;13410;52.114;5.718;2023-03-25T09:47:02;14.50;99.90
25504;DHT22;13410;52.114;5.718;2023-03-25T09:49:43;14.30;99.90
25504;DHT22;13410;52.114;5.718;2023-03-25T09:52:14;14.10;99.90
25504;DHT22;13410;52.114;5.718;2023-03-25T09:54:57;14.10;99.90
25504;DHT22;13410;52.114;5.718;2023-03-25T09:57:28;13.70;99.90
25504;DHT22;13410;52.114;5.718;2023-03-25T09:59:56;13.90;99.90
25504;DHT22;13410;52.114;5.718;2023-03-25T10:02:29;14.00;99.90
25504;DHT22;13410;52.114;5.718;2023-03-25T10:05:11;14.10;99.90
25504;DHT22;13410;52.114;5.718;2023-03-25T10:08:02;14.30;99.90
25504;DHT22;13410;52.114;5.718;2023-03-25T10:13:52;14.40;99.90
25504;DHT22;13410;52.114;5.718;2023-03-25T10:22:11;14.80;99.90
25504;DHT22;13410;52.114;5.718;2023-03-25T10:24:48;14.80;99.90
25504;DHT22;13410;52.114;5.718;2023-03-25T10:27:31;14.90;99.90
25504;DHT22;13410;52.114;5.718;2023-03-25T10:30:15;14.90;99.90
25504;DHT22;13410;52.114;5.718;2023-03-25T10:32:49;15.00;99.90
25504;DHT22;13410;52.114;5.718;2023-03-25T10:35:19;15.00;99.90
25504;DHT22;13410;52.114;5.718;2023-03-25T10:37:52;15.30;99.90
25504;DHT22;13410;52.114;5.718;2023-03-25T10:42:54;15.80;99.90
25504;DHT22;13410;52.114;5.718;2023-03-25T10:45:22;15.70;99.90
25504;DHT22;13410;52.114;5.718;2023-03-25T10:47:50;15.60;99.90
25504;DHT22;13410;52.114;5.718;2023-03-25T10:50:18;15.50;99.90
25504;DHT22;13410;52.114;5.718;2023-03-25T10:52:45;15.60;99.90
25504;DHT22;13410;52.114;5.718;2023-03-25T10:55:23;15.60;99.90
25504;DHT22;13410;52.114;5.718;2023-03-25T10:57:51;15.50;99.90
25504;DHT22;13410;52.114;5.718;2023-03-25T11:00:18;15.30;99.90
25504;DHT22;13410;52.114;5.718;2023-03-25T11:02:45;15.10;99.90
25504;DHT22;13410;52.114;5.718;2023-03-25T11:05:22;14.90;99.90
25504;DHT22;13410;52.114;5.718;2023-03-25T11:07:52;14.70;99.90
25504;DHT22;13410;52.114;5.718;2023-03-25T11:10:28;14.80;99.90
25504;DHT22;13410;52.114;5.718;2023-03-25T11:12:54;14.80;99.90
25504;DHT22;13410;52.114;5.718;2023-03-25T11:15:23;15.00;99.90
25504;DHT22;13410;52.114;5.718;2023-03-25T11:18:11;15.20;99.90
25504;DHT22;13410;52.114;5.718;2023-03-25T11:20:44;15.40;99.90
25504;DHT22;13410;52.114;5.718;2023-03-25T11:26:21;14.70;99.90
25504;DHT22;13410;52.114;5.718;2023-03-25T11:29:10;14.70;99.90
25504;DHT22;13410;52.114;5.718;2023-03-25T11:31:37;14.70;99.90
25504;DHT22;13410;52.114;5.718;2023-03-25T11:34:17;14.70;99.90
25504;DHT22;13410;52.114;5.718;2023-03-25T11:36:53;14.80;99.90
25504;DHT22;13410;52.114;5.718;2023-03-25T11:39:28;15.10;99.90
25504;DHT22;13410;52.114;5.718;2023-03-25T11:41:54;15.00;99.90
25504;DHT22;13410;52.114;5.718;2023-03-25T11:46:59;14.90;99.90
25504;DHT22;13410;52.114;5.718;2023-03-25T11:49:28;15.00;99.90
25504;DHT22;13410;52.114;5.718;2023-03-25T11:52:02;14.90;99.90
25504;DHT22;13410;52.114;5.718;2023-03-25T11:54:29;14.90;99.90
25504;DHT22;13410;52.114;5.718;2023-03-25T11:56:55;14.70;99.90
25504;DHT22;13410;52.114;5.718;2023-03-25T11:59:25;14.60;99.90
25504;DHT22;13410;52.114;5.718;2023-03-25T12:02:08;14.80;99.90
25504;DHT22;13410;52.114;5.718;2023-03-25T12:07:22;14.90;99.90
25504;DHT22;13410;52.114;5.718;2023-03-25T12:10:04;15.10;99.90
25504;DHT22;13410;52.114;5.718;2023-03-25T12:15:47;14.70;99.90
25504;DHT22;13410;52.114;5.718;2023-03-25T12:18:02;14.10;99.90
25504;DHT22;13410;52.114;5.718;2023-03-25T12:26:31;14.80;99.90
25504;DHT22;13410;52.114;5.718;2023-03-25T12:29:09;15.20;99.90
25504;DHT22;13410;52.114;5.718;2023-03-25T12:34:43;15.40;99.90
25504;DHT22;13410;52.114;5.718;2023-03-25T12:42:23;15.30;99.90
25504;DHT22;13410;52.114;5.718;2023-03-25T12:44:55;15.60;99.90
25504;DHT22;13410;52.114;5.718;2023-03-25T12:50:22;15.80;99.90
25504;DHT22;13410;52.114;5.718;2023-03-25T12:52:54;15.60;99.90
25504;DHT22;13410;52.114;5.718;2023-03-25T12:56:19;15.80;99.90
25504;DHT22;13410;52.114;5.718;2023-03-25T12:58:45;16.00;99.90
25504;DHT22;13410;52.114;5.718;2023-03-25T13:06:42;15.60;99.90
25504;DHT22;13410;52.114;5.718;2023-03-25T13:09:20;15.80;99.90
25504;DHT22;13410;52.114;5.718;2023-03-25T13:12:02;15.80;99.90
25504;DHT22;13410;52.114;5.718;2023-03-25T13:14:39;15.50;99.90
25504;DHT22;13410;52.114;5.718;2023-03-25T13:17:11;15.40;99.90
25504;DHT22;13410;52.114;5.718;2023-03-25T13:19:40;15.50;99.90
25504;DHT22;13410;52.114;5.718;2023-03-25T13:22:21;15.60;99.90
25504;DHT22;13410;52.114;5.718;2023-03-25T13:24:56;15.40;99.90
25504;DHT22;13410;52.114;5.718;2023-03-25T13:27:23;15.50;99.90
25504;DHT22;13410;52.114;5.718;2023-03-25T13:29:57;15.40;99.90
25504;DHT22;13410;52.114;5.718;2023-03-25T13:32:41;15.40;99.90
25504;DHT22;13410;52.114;5.718;2023-03-25T13:35:19;15.30;99.90
25504;DHT22;13410;52.114;5.718;2023-03-25T13:37:52;15.50;99.90
25504;DHT22;13410;52.114;5.718;2023-03-25T13:40:37;15.90;99.90
25504;DHT22;13410;52.114;5.718;2023-03-25T13:43:16;15.80;99.90
25504;DHT22;13410;52.114;5.718;2023-03-25T13:45:49;15.80;99.90
25504;DHT22;13410;52.114;5.718;2023-03-25T13:48:42;16.00;99.90
25504;DHT22;13410;52.114;5.718;2023-03-25T13:51:11;15.90;99.90
25504;DHT22;13410;52.114;5.718;2023-03-25T13:53:45;15.90;99.90
25504;DHT22;13410;52.114;5.718;2023-03-25T13:56:39;16.20;99.90
25504;DHT22;13410;52.114;5.718;2023-03-25T14:07:48;15.50;99.90
25504;DHT22;13410;52.114;5.718;2023-03-25T14:10:41;15.30;99.90
25504;DHT22;13410;52.114;5.718;2023-03-25T14:13:18;15.40;99.90
25504;DHT22;13410;52.114;5.718;2023-03-25T14:16:06;15.60;99.90
25504;DHT22;13410;52.114;5.718;2023-03-25T14:18:40;16.10;99.90
25504;DHT22;13410;52.114;5.718;2023-03-25T14:21:27;16.10;99.90
25504;DHT22;13410;52.114;5.718;2023-03-25T14:24:09;15.70;99.90
25504;DHT22;13410;52.114;5.718;2023-03-25T14:26:35;15.50;99.90
25504;DHT22;13410;52.114;5.718;2023-03-25T14:29:39;14.90;99.90
25504;DHT22;13410;52.114;5.718;2023-03-25T14:32:28;14.20;99.90
25504;DHT22;13410;52.114;5.718;2023-03-25T14:43:22;14.00;99.90
25504;DHT22;13410;52.114;5.718;2023-03-25T14:56:35;15.00;99.90
25504;DHT22;13410;52.114;5.718;2023-03-25T14:59:09;15.40;99.90
25504;DHT22;13410;52.114;5.718;2023-03-25T15:01:38;15.70;99.90
25504;DHT22;13410;52.114;5.718;2023-03-25T15:04:32;15.90;99.90
25504;DHT22;13410;52.114;5.718;2023-03-25T15:07:00;15.80;99.90
25504;DHT22;13410;52.114;5.718;2023-03-25T15:09:28;15.90;99.90
25504;DHT22;13410;52.114;5.718;2023-03-25T15:12:02;16.20;99.90
25504;DHT22;13410;52.114;5.718;2023-03-25T15:14:33;16.30;99.90
25504;DHT22;13410;52.114;5.718;2023-03-25T15:17:06;16.10;99.90
25504;DHT22;13410;52.114;5.718;2023-03-25T15:22:27;15.60;99.90
25504;DHT22;13410;52.114;5.718;2023-03-25T15:24:56;15.50;99.90
25504;DHT22;13410;52.114;5.718;2023-03-25T15:27:40;15.30;99.90
25504;DHT22;13410;52.114;5.718;2023-03-25T15:41:48;13.30;99.90
25504;DHT22;13410;52.114;5.718;2023-03-25T15:43:55;11.70;99.90
25504;DHT22;13410;52.114;5.718;2023-03-25T15:52:07;10.90;99.90
25504;DHT22;13410;52.114;5.718;2023-03-25T15:57:33;11.40;99.90
25504;DHT22;13410;52.114;5.718;2023-03-25T16:00:07;11.30;99.90
25504;DHT22;13410;52.114;5.718;2023-03-25T16:02:47;11.40;99.90
25504;DHT22;13410;52.114;5.718;2023-03-25T16:05:15;11.40;99.90
25504;DHT22;13410;52.114;5.718;2023-03-25T16:07:41;11.10;99.90
25504;DHT22;13410;52.114;5.718;2023-03-25T16:10:18;11.20;99.90
25504;DHT22;13410;52.114;5.718;2023-03-25T16:12:46;11.20;99.90
25504;DHT22;13410;52.114;5.718;2023-03-25T16:15:18;11.20;99.90
25504;DHT22;13410;52.114;5.718;2023-03-25T16:17:49;11.50;99.90
25504;DHT22;13410;52.114;5.718;2023-03-25T16:20:17;11.70;99.90
25504;DHT22;13410;52.114;5.718;2023-03-25T16:22:54;11.90;99.90
25504;DHT22;13410;52.114;5.718;2023-03-25T16:25:25;12.10;99.90
25504;DHT22;13410;52.114;5.718;2023-03-25T16:27:54;12.30;99.90
25504;DHT22;13410;52.114;5.718;2023-03-25T16:33:11;12.60;99.90
25504;DHT22;13410;52.114;5.718;2023-03-25T16:35:43;12.70;99.90
25504;DHT22;13410;52.114;5.718;2023-03-25T16:38:15;12.50;99.90
25504;DHT22;13410;52.114;5.718;2023-03-25T16:40:43;12.60;99.90
25504;DHT22;13410;52.114;5.718;2023-03-25T16:43:24;12.80;99.90
25504;DHT22;13410;52.114;5.718;2023-03-25T16:45:52;12.90;99.90
25504;DHT22;13410;52.114;5.718;2023-03-25T16:48:39;12.60;99.90
25504;DHT22;13410;52.114;5.718;2023-03-25T16:51:18;12.40;99.90
25504;DHT22;13410;52.114;5.718;2023-03-25T16:53:52;12.40;99.90
25504;DHT22;13410;52.114;5.718;2023-03-25T16:56:22;12.00;99.90
25504;DHT22;13410;52.114;5.718;2023-03-25T16:59:03;12.00;99.90
25504;DHT22;13410;52.114;5.718;2023-03-25T17:01:41;11.80;99.90
25504;DHT22;13410;52.114;5.718;2023-03-25T17:04:37;11.70;99.90
25504;DHT22;13410;52.114;5.718;2023-03-25T17:07:24;11.80;99.90
25504;DHT22;13410;52.114;5.718;2023-03-25T17:09:54;12.00;99.90
25504;DHT22;13410;52.114;5.718;2023-03-25T17:12:21;12.20;99.90
25504;DHT22;13410;52.114;5.718;2023-03-25T17:14:49;12.50;99.90
25504;DHT22;13410;52.114;5.718;2023-03-25T17:17:40;12.50;99.90
25504;DHT22;13410;52.114;5.718;2023-03-25T17:20:35;12.50;99.90
25504;DHT22;13410;52.114;5.718;2023-03-25T17:28:27;12.60;99.90
25504;DHT22;13410;52.114;5.718;2023-03-25T17:30:56;12.70;99.90
25504;DHT22;13410;52.114;5.718;2023-03-25T17:35:54;12.50;99.90
25504;DHT22;13410;52.114;5.718;2023-03-25T17:38:34;12.40;99.90
25504;DHT22;13410;52.114;5.718;2023-03-25T17:41:03;12.30;99.90
25504;DHT22;13410;52.114;5.718;2023-03-25T17:43:33;12.30;99.90
25504;DHT22;13410;52.114;5.718;2023-03-25T17:45:59;12.30;99.90
25504;DHT22;13410;52.114;5.718;2023-03-25T17:48:26;12.30;99.90
25504;DHT22;13410;52.114;5.718;2023-03-25T17:50:53;12.30;99.90
25504;DHT22;13410;52.114;5.718;2023-03-25T17:53:19;12.50;99.90
25504;DHT22;13410;52.114;5.718;2023-03-25T17:55:45;12.60;99.90
25504;DHT22;13410;52.114;5.718;2023-03-25T17:58:12;12.60;99.90
25504;DHT22;13410;52.114;5.718;2023-03-25T18:00:38;12.60;99.90
25504;DHT22;13410;52.114;5.718;2023-03-25T18:03:22;12.40;99.90
25504;DHT22;13410;52.114;5.718;2023-03-25T18:05:49;12.70;99.90
25504;DHT22;13410;52.114;5.718;2023-03-25T18:08:21;12.70;99.90
25504;DHT22;13410;52.114;5.718;2023-03-25T18:10:48;12.80;99.90
25504;DHT22;13410;52.114;5.718;2023-03-25T18:13:14;12.80;99.90
25504;DHT22;13410;52.114;5.718;2023-03-25T18:15:39;12.80;99.90
25504;DHT22;13410;52.114;5.718;2023-03-25T18:18:06;12.70;99.90